Time;durP1;ratioP1;P1;durP2;ratioP2;P2;SDS_P1;SDS_P2;PMS_P1;PMS_P2;Temp;Humidity;BMP_temperature;BMP_pressure;BME280_temperature;BME280_humidity;BME280_pressure;Samples;Min_cycle;Max_cycle;Signal;HPM_P1;HPM_P2
2021/12/14 00:01:48;;;;;;;4.97;3.50;;;8.00;99.90;;;8.58;100.00;101646.84;4973915;28;20038;-82
2021/12/14 00:04:33;;;;;;;5.05;3.53;;;8.00;99.90;;;8.57;100.00;101646.03;4974499;28;20092;-81
2021/12/14 00:07:09;;;;;;;3.45;2.83;;;8.00;99.90;;;8.62;100.00;101639.50;4973090;28;20084;-80
2021/12/14 00:09:39;;;;;;;4.78;3.30;;;8.00;99.90;;;8.58;100.00;101647.66;4973542;28;20042;-81
2021/12/14 00:12:44;;;;;;;4.00;2.95;;;7.90;99.90;;;8.56;100.00;101638.81;4976649;28;20022;-82
2021/12/14 00:15:16;;;;;;;14.00;3.80;;;8.00;99.90;;;8.50;100.00;101628.97;4974076;28;20023;-80
2021/12/14 00:17:56;;;;;;;5.00;2.97;;;8.00;99.90;;;8.55;100.00;101636.34;4977405;28;20027;-80
2021/12/14 00:20:45;;;;;;;3.38;3.08;;;7.90;99.90;;;8.51;100.00;101633.38;4980721;28;20035;-81
2021/12/14 00:25:54;;;;;;;6.35;2.83;;;7.90;99.90;;;8.55;100.00;101623.25;4994600;28;20446;-81
2021/12/14 00:28:28;;;;;;;3.63;2.90;;;8.00;99.90;;;8.55;100.00;101623.25;4993573;28;20058;-81
2021/12/14 00:31:01;;;;;;;3.45;2.65;;;8.00;99.90;;;8.57;100.00;101620.97;4992842;28;20437;-81
2021/12/14 00:33:34;;;;;;;3.72;2.90;;;7.90;99.90;;;8.53;100.00;101624.72;5003397;28;20103;-81
2021/12/14 00:36:06;;;;;;;5.63;3.17;;;8.00;99.90;;;8.55;100.00;101626.03;5015380;28;20022;-81
2021/12/14 00:38:38;;;;;;;4.90;3.40;;;7.90;99.90;;;8.53;100.00;101625.53;5014623;28;20038;-80
2021/12/14 00:41:34;;;;;;;3.92;2.90;;;7.90;99.90;;;8.53;100.00;101624.72;5007207;28;20034;-81
2021/12/14 00:44:00;;;;;;;5.32;2.83;;;7.90;99.90;;;8.50;100.00;101626.19;4993153;28;20425;-81
2021/12/14 00:46:36;;;;;;;7.30;3.15;;;7.90;99.90;;;8.46;100.00;101620.44;4992821;28;20034;-80
2021/12/14 00:49:08;;;;;;;3.53;2.70;;;7.90;99.90;;;8.53;100.00;101631.09;4992191;28;20030;-79
2021/12/14 00:51:34;;;;;;;3.40;2.78;;;7.90;99.90;;;8.60;100.00;101630.66;4992450;28;20486;-78
2021/12/14 00:54:11;;;;;;;4.80;2.65;;;7.90;99.90;;;8.58;100.00;101625.38;4991229;28;20454;-79
2021/12/14 00:56:43;;;;;;;4.32;2.72;;;7.90;99.90;;;8.56;100.00;101627.69;4992893;28;20030;-80
2021/12/14 00:59:15;;;;;;;4.38;2.80;;;7.90;99.90;;;8.56;100.00;101627.69;4993005;28;20497;-81
2021/12/14 01:02:06;;;;;;;3.00;2.65;;;7.80;99.90;;;8.55;100.00;101628.81;4991342;28;20073;-80
2021/12/14 01:04:55;;;;;;;3.35;2.80;;;7.80;99.90;;;8.58;100.00;101630.97;4993009;28;20067;-79
2021/12/14 01:07:30;;;;;;;4.32;2.97;;;7.90;99.90;;;8.57;100.00;101618.19;4991788;28;20026;-79
2021/12/14 01:10:17;;;;;;;4.20;2.63;;;7.80;99.90;;;8.58;100.00;101613.41;4994701;28;20041;-79
2021/12/14 01:12:49;;;;;;;4.95;3.03;;;7.80;99.90;;;8.48;100.00;101602.59;4994558;28;20038;-78
2021/12/14 01:16:47;;;;;;;3.90;2.40;;;7.80;99.90;;;8.56;100.00;101597.06;4995630;28;20060;-80
2021/12/14 01:19:01;;;;;;;3.92;2.83;;;7.80;99.90;;;8.53;100.00;101592.13;4987459;28;20042;-79
2021/12/14 01:24:53;;;;;;;4.03;2.95;;;7.80;99.90;;;8.46;100.00;101600.13;4976836;28;20066;-80
2021/12/14 01:27:30;;;;;;;4.00;2.35;;;7.80;99.90;;;8.50;100.00;101595.56;4976543;28;20515;-79
2021/12/14 01:29:56;;;;;;;3.33;2.50;;;7.80;99.90;;;8.52;100.00;101609.97;4977030;28;20022;-80
2021/12/14 01:32:27;;;;;;;4.57;2.88;;;7.90;99.90;;;8.53;100.00;101621.94;4976770;28;20031;-81
2021/12/14 01:34:53;;;;;;;3.80;2.80;;;7.80;99.90;;;8.52;100.00;101623.06;4975523;28;20027;-79
2021/12/14 01:37:24;;;;;;;5.35;2.55;;;7.80;99.90;;;8.50;100.00;101617.84;4975566;28;20041;-79
2021/12/14 01:40:06;;;;;;;4.68;3.00;;;7.80;99.90;;;8.52;100.00;101621.09;4976398;28;20447;-80
2021/12/14 01:42:41;;;;;;;3.22;2.80;;;7.80;99.90;;;8.50;100.00;101620.63;4977611;28;20471;-83
2021/12/14 01:45:26;;;;;;;3.08;2.78;;;7.80;99.90;;;8.43;100.00;101612.72;4976748;28;20399;-80
2021/12/14 01:47:59;;;;;;;4.75;2.90;;;7.80;99.90;;;8.47;100.00;101621.25;4976311;28;20494;-80
2021/12/14 01:50:53;;;;;;;3.45;2.63;;;7.80;99.90;;;8.52;100.00;101618.31;4976384;28;20204;-82
2021/12/14 01:53:22;;;;;;;4.20;3.10;;;7.70;99.90;;;8.54;100.00;101635.50;4976269;28;20027;-80
2021/12/14 01:55:54;;;;;;;3.65;2.83;;;7.80;99.90;;;8.50;100.00;101644.84;4974716;28;20081;-81
2021/12/14 01:58:47;;;;;;;3.55;2.67;;;7.80;99.90;;;8.48;100.00;101643.19;4975854;28;20106;-79
2021/12/14 02:01:24;;;;;;;3.50;2.53;;;7.70;99.90;;;8.47;100.00;101643.53;4974128;28;20073;-81
2021/12/14 02:04:19;;;;;;;5.38;3.13;;;7.70;99.90;;;8.51;100.00;101641.72;4975100;28;20057;-79
2021/12/14 02:06:58;;;;;;;4.47;2.95;;;7.80;99.90;;;8.49;100.00;101630.09;4975350;28;20027;-80
2021/12/14 02:09:29;;;;;;;3.83;2.80;;;7.70;99.90;;;8.51;100.00;101625.03;4974415;28;20053;-80
2021/12/14 02:12:02;;;;;;;5.28;3.70;;;7.80;99.90;;;8.52;100.00;101625.84;4975749;28;20045;-80
2021/12/14 02:14:29;;;;;;;4.45;3.00;;;7.80;99.90;;;8.48;100.00;101617.31;4974255;28;20116;-78
2021/12/14 02:17:02;;;;;;;6.18;3.95;;;7.70;99.90;;;8.44;100.00;101608.78;4976028;28;20042;-81
2021/12/14 02:19:30;;;;;;;5.05;3.33;;;7.70;99.90;;;8.41;100.00;101595.50;4975613;28;20509;-79
2021/12/14 02:21:59;;;;;;;5.28;3.17;;;7.70;99.90;;;8.34;100.00;101574.84;4983323;28;20432;-80
2021/12/14 02:24:29;;;;;;;4.95;3.35;;;7.70;99.90;;;8.38;100.00;101587.78;4994046;28;20096;-80
2021/12/14 02:27:00;;;;;;;4.97;3.58;;;7.70;99.90;;;8.37;100.00;101590.91;4994653;28;20022;-80
2021/12/14 02:29:34;;;;;;;6.05;3.10;;;7.70;99.90;;;8.35;100.00;101588.44;4994641;28;20092;-82
2021/12/14 02:32:26;;;;;;;5.63;4.00;;;7.70;99.90;;;8.36;100.00;101583.69;4994009;28;20027;-82
2021/12/14 02:35:01;;;;;;;6.88;4.43;;;7.70;99.90;;;8.35;100.00;101580.09;4994646;28;20027;-79
2021/12/14 02:37:55;;;;;;;6.03;3.80;;;7.70;99.90;;;8.38;100.00;101579.44;4994413;28;20041;-79
2021/12/14 02:40:53;;;;;;;6.68;3.70;;;7.70;99.90;;;8.30;100.00;101560.75;4992915;28;20030;-79
2021/12/14 02:43:51;;;;;;;7.20;3.50;;;7.70;99.90;;;8.23;100.00;101543.66;4996796;28;20560;-82
2021/12/14 02:46:37;;;;;;;6.32;3.60;;;7.70;99.90;;;8.27;100.00;101543.84;4995551;28;20061;-81
2021/12/14 02:49:14;;;;;;;7.13;4.13;;;7.70;99.90;;;8.32;100.00;101538.97;4995824;28;20430;-81
2021/12/14 02:51:58;;;;;;;6.50;4.40;;;7.70;99.90;;;8.22;100.00;101521.72;5003730;28;20069;-82
2021/12/14 02:54:42;;;;;;;6.97;4.30;;;7.70;99.90;;;8.26;100.00;101531.06;4997264;28;20394;-80
2021/12/14 02:57:21;;;;;;;5.72;3.75;;;7.60;99.90;;;8.31;100.00;101534.56;4996138;28;20069;-81
2021/12/14 02:59:56;;;;;;;6.82;4.35;;;7.60;99.90;;;8.23;100.00;101529.75;4997257;28;20490;-80
2021/12/14 03:02:44;;;;;;;7.00;4.15;;;7.60;99.90;;;8.23;100.00;101524.19;4993962;28;20034;-79
2021/12/14 03:05:26;;;;;;;7.43;4.38;;;7.60;99.90;;;8.21;100.00;101526.47;4992716;28;20026;-81
2021/12/14 03:08:08;;;;;;;6.47;4.72;;;7.60;99.90;;;8.22;100.00;101528.09;4993907;28;20026;-81
2021/12/14 03:11:09;;;;;;;6.85;4.47;;;7.60;99.90;;;8.25;100.00;101537.78;4992705;28;20066;-79
2021/12/14 03:13:56;;;;;;;8.07;4.80;;;7.60;99.90;;;8.17;100.00;101530.22;4993840;28;20030;-81
2021/12/14 03:16:33;;;;;;;8.55;4.32;;;7.60;99.90;;;8.16;100.00;101534.94;4994174;28;20134;-84
2021/12/14 03:19:06;;;;;;;8.35;5.07;;;7.60;99.90;;;8.22;100.00;101530.09;4994268;28;20026;-81
2021/12/14 03:21:39;;;;;;;9.55;5.10;;;7.60;99.90;;;8.24;100.00;101525.00;4988265;28;20130;-82
2021/12/14 03:24:15;;;;;;;7.78;5.05;;;7.60;99.90;;;8.24;100.00;101513.88;4973292;28;20399;-81
2021/12/14 03:26:52;;;;;;;9.63;4.72;;;7.60;99.90;;;8.31;100.00;101512.31;4973544;28;20037;-80
2021/12/14 03:29:31;;;;;;;9.73;4.70;;;7.60;99.90;;;8.25;100.00;101504.38;4975202;28;20035;-81
2021/12/14 03:32:00;;;;;;;7.95;5.40;;;7.60;99.90;;;8.29;100.00;101508.19;4974007;28;20035;-79
2021/12/14 03:34:36;;;;;;;7.85;5.10;;;7.60;99.90;;;8.26;100.00;101528.28;4973824;28;20031;-80
2021/12/14 03:37:25;;;;;;;8.13;5.32;;;7.50;99.90;;;8.28;100.00;101521.28;4975314;28;20073;-81
2021/12/14 03:40:01;;;;;;;6.88;4.78;;;7.50;99.90;;;8.25;100.00;101530.22;4972948;28;20109;-80
2021/12/14 03:42:39;;;;;;;9.25;5.85;;;7.60;99.90;;;8.25;100.00;101518.31;4972903;28;20094;-81
2021/12/14 03:45:18;;;;;;;9.02;4.72;;;7.50;99.90;;;8.25;100.00;101530.22;5023947;23;20045;-82
2021/12/14 03:48:00;;;;;;;8.85;5.45;;;7.50;99.90;;;8.26;100.00;101529.09;5005348;28;20026;-83
2021/12/14 03:50:41;;;;;;;7.95;5.20;;;7.50;99.90;;;8.25;100.00;101526.66;5003899;28;20033;-83
2021/12/14 03:53:11;;;;;;;8.60;5.20;;;7.50;99.90;;;8.25;100.00;101543.34;5021421;28;20030;-81
2021/12/14 03:55:48;;;;;;;7.78;5.05;;;7.50;99.90;;;8.23;100.00;101537.25;5021023;28;20037;-82
2021/12/14 03:58:21;;;;;;;8.43;4.95;;;7.50;99.90;;;8.21;100.00;101553.47;5006009;28;20049;-83
2021/12/14 04:01:08;;;;;;;10.13;6.35;;;7.50;99.90;;;8.20;100.00;101552.66;5005781;28;20038;-82
2021/12/14 04:03:36;;;;;;;7.43;5.10;;;7.50;99.90;;;8.20;100.00;101562.97;5023703;28;20046;-80
2021/12/14 04:06:04;;;;;;;7.53;5.00;;;7.50;99.90;;;8.20;100.00;101558.22;5023417;28;20054;-84
2021/12/14 04:08:35;;;;;;;9.35;4.82;;;7.50;99.90;;;8.18;100.00;101559.69;5007198;28;20030;-82
2021/12/14 04:11:06;;;;;;;7.38;4.90;;;7.40;99.90;;;8.16;100.00;101561.94;5024108;28;20030;-83
2021/12/14 04:13:43;;;;;;;9.23;5.38;;;7.40;99.90;;;8.16;100.00;101557.22;5025461;28;20041;-81
2021/12/14 04:16:16;;;;;;;9.82;6.25;;;7.40;99.90;;;8.16;100.00;101561.94;5023500;28;20034;-82
2021/12/14 04:18:43;;;;;;;10.85;5.85;;;7.40;99.90;;;8.17;100.00;101570.00;5024005;28;20040;-84
2021/12/14 04:21:09;;;;;;;11.15;5.85;;;7.50;99.90;;;8.18;100.00;101570.81;5008184;28;20048;-84
2021/12/14 04:23:44;;;;;;;11.27;6.50;;;7.40;99.90;;;8.18;100.00;101568.84;5026549;28;20022;-85
2021/12/14 04:26:15;;;;;;;9.98;6.80;;;7.50;99.90;;;8.20;100.00;101563.78;5034166;28;20094;-81
2021/12/14 04:29:00;;;;;;;11.63;6.72;;;7.50;99.90;;;8.17;100.00;101550.50;5035679;28;20029;-83
2021/12/14 04:31:31;;;;;;;10.35;6.38;;;7.40;99.90;;;8.19;100.00;101537.09;5027962;28;20041;-82
2021/12/14 04:34:01;;;;;;;10.55;6.95;;;7.50;99.90;;;8.22;100.00;101538.44;5010327;28;20034;-83
2021/12/14 04:36:36;;;;;;;15.20;8.02;;;7.50;99.90;;;8.16;100.00;101550.81;5004891;28;20034;-84
2021/12/14 04:39:49;;;;;;;12.77;7.75;;;7.50;99.90;;;8.12;100.00;101552.63;5025387;28;20040;-81
2021/12/14 04:54:01;;;;;;;10.73;7.68;;;7.40;99.90;;;8.12;100.00;101549.84;5033131;28;20036;-82
2021/12/14 04:56:40;;;;;;;13.73;8.55;;;7.40;99.90;;;8.16;100.00;101550.81;5031734;28;20025;-85
2021/12/14 04:59:20;;;;;;;18.98;9.63;;;7.40;99.90;;;8.11;100.00;101562.09;5010952;28;20076;-82
2021/12/14 05:01:48;;;;;;;17.70;8.75;;;7.40;99.90;;;8.15;100.00;101554.75;5006568;28;20034;-85
2021/12/14 05:04:21;;;;;;;14.73;8.25;;;7.40;99.90;;;8.14;100.00;101564.25;5024768;28;20025;-84
2021/12/14 05:06:54;;;;;;;15.10;9.43;;;7.40;99.90;;;8.12;100.00;101561.78;5007611;28;20481;-84
2021/12/14 05:09:36;;;;;;;17.38;10.07;;;7.40;99.90;;;8.11;100.00;101565.72;5005642;28;20033;-83
2021/12/14 05:12:15;;;;;;;17.48;9.73;;;7.40;99.90;;;8.11;100.00;101559.31;5008899;28;20115;-82
2021/12/14 05:14:47;;;;;;;18.05;10.57;;;7.40;99.90;;;8.10;100.00;101554.88;5009256;28;20119;-82
2021/12/14 05:17:31;;;;;;;20.65;11.35;;;7.40;99.90;;;8.08;100.00;101552.44;5025137;28;20061;-85
2021/12/14 05:20:00;;;;;;;19.17;11.20;;;7.40;99.90;;;8.06;100.00;101545.56;5006313;28;20030;-82
2021/12/14 05:22:34;;;;;;;18.17;10.45;;;7.30;99.90;;;8.04;100.00;101556.16;5014138;28;20058;-83
2021/12/14 05:25:24;;;;;;;22.55;11.98;;;7.40;99.90;;;8.04;100.00;101570.06;4987647;28;20034;-83
2021/12/14 05:28:00;;;;;;;20.27;11.27;;;7.30;99.90;;;8.04;100.00;101568.13;5008165;28;20030;-82
2021/12/14 05:30:40;;;;;;;17.08;9.95;;;7.30;99.90;;;8.02;100.00;101570.41;4987718;28;20030;-82
2021/12/14 05:33:20;;;;;;;20.38;10.93;;;7.30;99.90;;;8.01;100.00;101563.19;4987649;28;20042;-83
2021/12/14 05:35:54;;;;;;;20.75;11.95;;;7.30;99.90;;;7.99;100.00;101561.88;5003458;28;20113;-84
2021/12/14 05:38:41;;;;;;;18.08;10.18;;;7.30;99.90;;;7.95;100.00;101554.16;4984886;28;20038;-83
2021/12/14 05:43:05;;;;;;;20.33;11.85;;;7.20;99.90;;;7.94;100.00;101558.06;4985118;28;20037;-82
2021/12/14 05:44:00;;;;;;;20.02;11.30;;;7.20;99.90;;;7.93;100.00;101555.59;5005460;28;20053;-82
2021/12/14 05:46:28;;;;;;;19.80;11.93;;;7.20;99.90;;;7.90;100.00;101559.84;5005619;28;20034;-81
2021/12/14 05:49:06;;;;;;;19.42;10.40;;;7.20;99.90;;;7.89;100.00;101558.22;5006763;28;20026;-82
2021/12/14 05:51:35;;;;;;;21.17;12.02;;;7.20;99.90;;;7.88;100.00;101558.53;4985965;28;20030;-82
2021/12/14 05:54:04;;;;;;;21.40;12.40;;;7.20;99.90;;;7.85;100.00;101559.16;5008149;28;20034;-80
2021/12/14 05:56:32;;;;;;;23.98;13.43;;;7.10;99.90;;;7.79;100.00;101552.09;5006326;28;20026;-83
2021/12/14 05:59:01;;;;;;;22.98;12.18;;;7.20;99.90;;;7.81;100.00;101541.47;5006696;28;20118;-82
2021/12/14 06:01:33;;;;;;;22.15;12.88;;;7.10;99.90;;;7.81;100.00;101541.47;5007240;28;20037;-81
2021/12/14 06:04:07;;;;;;;25.38;13.40;;;7.10;99.90;;;7.82;100.00;101543.13;5007283;28;20101;-80
2021/12/14 06:06:52;;;;;;;25.23;14.03;;;7.10;99.90;;;7.81;100.00;101542.28;5006311;28;20022;-81
2021/12/14 06:09:33;;;;;;;24.88;13.45;;;7.10;99.90;;;7.79;100.00;101540.97;4988770;28;20037;-82
2021/12/14 06:12:34;;;;;;;26.83;14.95;;;7.10;99.90;;;7.80;100.00;101539.84;5008975;28;20038;-81
2021/12/14 06:15:08;;;;;;;24.75;14.35;;;7.10;99.90;;;7.82;100.00;101548.69;4990941;28;20406;-82
2021/12/14 06:17:41;;;;;;;24.50;13.98;;;7.10;99.90;;;7.78;100.00;101556.84;5008839;28;20089;-80
2021/12/14 06:20:32;;;;;;;28.27;15.27;;;7.10;99.90;;;7.80;100.00;101557.31;4990190;28;20042;-82
2021/12/14 06:22:57;;;;;;;29.55;14.63;;;7.00;99.90;;;7.78;100.00;101539.31;5005448;28;20034;-81
2021/12/14 06:25:29;;;;;;;28.45;14.68;;;7.10;99.90;;;7.76;100.00;101545.22;5028465;28;20040;-82
2021/12/14 06:27:59;;;;;;;26.15;15.25;;;7.10;99.90;;;7.78;100.00;101553.22;5028668;28;20037;-83
2021/12/14 06:30:33;;;;;;;26.75;14.77;;;7.00;99.90;;;7.77;100.00;101546.03;5009876;28;20041;-80
2021/12/14 06:33:09;;;;;;;29.05;15.48;;;7.00;99.90;;;7.79;100.00;101550.16;5014936;28;20130;-83
2021/12/14 06:35:53;;;;;;;31.45;17.00;;;7.00;99.90;;;7.77;100.00;101549.63;5029001;28;20030;-83
2021/12/14 06:38:33;;;;;;;28.27;15.57;;;7.10;99.90;;;7.77;100.00;101544.06;5011180;28;20437;-84
2021/12/14 06:41:10;;;;;;;28.42;16.17;;;7.00;99.90;;;7.77;100.00;101555.19;5012475;28;20049;-81
2021/12/14 06:44:08;;;;;;;29.95;15.50;;;7.00;99.90;;;7.75;100.00;101548.31;5011435;28;20461;-81
2021/12/14 06:46:40;;;;;;;30.13;15.35;;;7.10;99.90;;;7.79;100.00;101560.44;5009465;28;20093;-83
2021/12/14 06:49:20;;;;;;;30.00;15.77;;;7.00;99.90;;;7.71;100.00;101562.00;5026346;28;20030;-82
2021/12/14 06:51:55;;;;;;;32.38;16.63;;;7.00;99.90;;;7.74;100.00;101569.72;5021577;28;20044;-84
2021/12/14 06:54:30;;;;;;;34.42;17.83;;;7.00;99.90;;;7.70;100.00;101577.09;5005560;28;20034;-79
2021/12/14 06:57:04;;;;;;;33.72;18.45;;;7.00;99.90;;;7.67;100.00;101594.41;5023808;28;20428;-84
2021/12/14 06:59:34;;;;;;;32.70;18.15;;;7.00;99.90;;;7.75;100.00;101601.97;5006789;28;20037;-80
2021/12/14 07:02:09;;;;;;;32.33;14.68;;;7.00;99.90;;;7.76;100.00;101611.97;5024975;28;20106;-82
2021/12/14 07:04:48;;;;;;;36.35;18.95;;;7.00;99.90;;;7.71;100.00;101608.47;5024562;28;20084;-79
2021/12/14 07:07:26;;;;;;;34.28;16.63;;;7.00;99.90;;;7.75;100.00;101613.09;5004751;28;20212;-82
2021/12/14 07:10:00;;;;;;;31.25;16.63;;;7.00;99.90;;;7.75;100.00;101604.75;5021701;28;20108;-81
2021/12/14 07:12:36;;;;;;;35.50;18.45;;;7.00;99.90;;;7.73;100.00;101607.03;5005224;28;20036;-82
2021/12/14 07:15:35;;;;;;;33.55;19.38;;;7.00;99.90;;;7.77;100.00;101607.22;5007414;28;20598;-83
2021/12/14 07:18:07;;;;;;;40.72;20.48;;;7.00;99.90;;;7.76;100.00;101608.34;5007368;28;20432;-81
2021/12/14 07:20:54;;;;;;;38.97;20.90;;;7.00;99.90;;;7.74;100.00;101611.44;5008570;28;20029;-81
2021/12/14 07:23:36;;;;;;;35.25;18.45;;;7.00;99.90;;;7.77;100.00;101618.34;5025889;28;20034;-81
2021/12/14 07:26:12;;;;;;;37.40;19.58;;;7.10;99.90;;;7.76;100.00;101614.75;5025646;28;20018;-82
2021/12/14 07:28:58;;;;;;;36.35;18.38;;;7.00;99.90;;;7.78;100.00;101619.97;5009604;28;20030;-84
2021/12/14 07:31:25;;;;;;;38.92;19.23;;;7.00;99.90;;;7.75;100.00;101610.31;5009488;28;20049;-81
2021/12/14 07:33:59;;;;;;;37.47;18.88;;;7.00;99.90;;;7.76;100.00;101625.88;5027416;28;20093;-81
2021/12/14 07:36:37;;;;;;;32.17;17.92;;;7.00;99.90;;;7.80;100.00;101626.84;5011032;28;20541;-80
2021/12/14 07:39:14;;;;;;;37.88;18.77;;;7.00;99.90;;;7.77;100.00;101630.28;5027384;28;20037;-81
2021/12/14 07:41:50;;;;;;;41.95;19.75;;;7.00;99.90;;;7.77;100.00;101633.06;5025806;28;20026;-82
2021/12/14 07:44:37;;;;;;;35.42;18.80;;;7.00;99.90;;;7.75;100.00;101629.78;5008247;28;20037;-84
2021/12/14 07:47:29;;;;;;;40.55;20.50;;;7.00;99.90;;;7.77;100.00;101638.63;5008867;28;20030;-82
2021/12/14 07:49:56;;;;;;;35.38;18.95;;;7.10;99.90;;;7.75;100.00;101631.72;5011609;28;20050;-81
2021/12/14 07:52:37;;;;;;;38.65;19.40;;;7.00;99.90;;;7.81;100.00;101650.75;5027130;28;20049;-81
2021/12/14 07:55:20;;;;;;;40.85;20.25;;;7.00;99.90;;;7.80;100.00;101651.88;5009931;28;20026;-83
2021/12/14 07:57:48;;;;;;;37.17;19.35;;;7.00;99.90;;;7.76;100.00;101648.13;5027802;28;20022;-83
2021/12/14 08:00:28;;;;;;;34.90;18.15;;;7.10;99.90;;;7.82;100.00;101659.94;5009722;28;20125;-81
2021/12/14 08:03:00;;;;;;;40.13;20.05;;;7.10;99.90;;;7.82;100.00;101662.72;5009694;28;20126;-83
2021/12/14 08:05:43;;;;;;;36.30;19.48;;;7.10;99.90;;;7.84;100.00;101666.81;5034583;28;20041;-80
2021/12/14 08:08:31;;;;;;;35.58;20.10;;;7.10;99.90;;;7.87;100.00;101674.53;5034956;28;20040;-83
2021/12/14 08:11:28;;;;;;;41.13;21.38;;;7.20;99.90;;;7.83;100.00;101667.94;5010942;28;20040;-82
2021/12/14 08:14:12;;;;;;;33.83;18.45;;;7.10;99.90;;;7.82;100.00;101669.09;5009722;28;20022;-80
2021/12/14 08:16:58;;;;;;;35.17;19.45;;;7.10;99.90;;;7.80;100.00;101665.78;5012080;28;20348;-82
2021/12/14 08:19:39;;;;;;;32.83;19.08;;;7.10;99.90;;;7.87;100.00;101665.34;5032435;28;20026;-83
2021/12/14 08:22:34;;;;;;;35.20;19.45;;;7.10;99.90;;;7.90;100.00;101670.28;5021674;28;20042;-84
2021/12/14 08:25:08;;;;;;;34.63;18.33;;;7.10;99.90;;;7.93;100.00;101670.47;5011624;28;20034;-83
2021/12/14 08:27:34;;;;;;;33.83;18.75;;;7.20;99.90;;;7.99;100.00;101687.06;5012237;28;20049;-83
2021/12/14 08:30:10;;;;;;;42.72;20.77;;;7.20;99.90;;;8.04;100.00;101686.94;4995236;28;20032;-83
2021/12/14 08:32:41;;;;;;;38.55;20.58;;;7.30;99.90;;;7.94;100.00;101679.66;5011395;28;20030;-83
2021/12/14 08:35:13;;;;;;;34.30;18.52;;;7.30;99.90;;;8.00;100.00;101680.34;4995552;28;20049;-85
2021/12/14 08:37:58;;;;;;;42.65;21.60;;;7.20;99.90;;;7.99;100.00;101678.72;4993961;28;20034;-82
2021/12/14 08:40:54;;;;;;;35.67;19.17;;;7.30;99.90;;;8.05;100.00;101683.03;4994824;28;20061;-81
2021/12/14 08:43:33;;;;;;;36.28;19.40;;;7.30;99.90;;;8.03;100.00;101680.53;4997422;28;20035;-83
2021/12/14 08:46:13;;;;;;;38.58;20.45;;;7.30;99.90;;;8.05;100.00;101683.03;5011751;28;20030;-81
2021/12/14 08:49:05;;;;;;;34.42;18.58;;;7.30;99.90;;;8.08;100.00;101685.16;5011959;28;20022;-82
2021/12/14 08:51:45;;;;;;;40.40;19.85;;;7.30;99.90;;;8.09;100.00;101678.47;5012461;28;20023;-82
2021/12/14 08:54:25;;;;;;;38.60;20.42;;;7.40;99.90;;;8.11;100.00;101685.34;5011535;28;20065;-81
2021/12/14 08:57:30;;;;;;;37.47;19.50;;;7.40;99.90;;;8.16;100.00;101685.22;5011599;28;20038;-81
2021/12/14 09:00:25;;;;;;;40.10;20.98;;;7.40;99.90;;;8.08;100.00;101679.59;4930710;29;20082;-81
2021/12/14 09:02:54;;;;;;;40.45;20.25;;;7.40;99.90;;;8.10;100.00;101680.09;4993299;28;20543;-82
2021/12/14 09:05:42;;;;;;;40.88;21.63;;;7.40;99.90;;;8.06;100.00;101676.31;4993360;28;20033;-82
2021/12/14 09:08:09;;;;;;;35.63;19.52;;;7.40;99.90;;;8.15;100.00;101683.59;4993645;28;20049;-83
2021/12/14 09:10:38;;;;;;;38.45;20.00;;;7.40;99.90;;;8.18;100.00;101684.91;4993536;28;20030;-84
2021/12/14 09:13:14;;;;;;;42.45;21.63;;;7.40;99.90;;;8.21;100.00;101690.66;5010580;28;20033;-82
2021/12/14 09:16:12;;;;;;;41.60;21.67;;;7.50;99.90;;;8.22;100.00;101688.72;5010485;28;20026;-85
2021/12/14 09:18:47;;;;;;;37.45;20.88;;;7.40;99.90;;;8.21;100.00;101696.25;5010939;28;20030;-85
2021/12/14 09:21:34;;;;;;;39.40;21.70;;;7.40;99.90;;;8.19;100.00;101697.66;5014003;28;20007;-85
2021/12/14 09:24:10;;;;;;;41.28;20.70;;;7.50;99.90;;;8.26;100.00;101700.84;5013643;28;20136;-82
2021/12/14 09:26:46;;;;;;;41.30;21.48;;;7.50;99.90;;;8.17;100.00;101688.81;5013772;28;20026;-83
2021/12/14 09:29:21;;;;;;;45.45;23.42;;;7.50;99.90;;;8.17;100.00;101691.59;5035247;28;20030;-80
2021/12/14 09:31:56;;;;;;;48.75;24.15;;;7.50;99.90;;;8.25;100.00;101685.28;5034735;28;20106;-84
2021/12/14 09:34:28;;;;;;;40.42;21.60;;;7.50;99.90;;;8.27;100.00;101697.75;5031410;28;20033;-82
2021/12/14 09:36:55;;;;;;;44.40;22.95;;;7.50;99.90;;;8.32;100.00;101699.59;5010398;28;20038;-82
2021/12/14 09:39:36;;;;;;;40.13;21.50;;;7.60;99.90;;;8.35;100.00;101701.75;5011220;28;20062;-82
2021/12/14 09:42:18;;;;;;;41.10;21.88;;;7.60;99.90;;;8.40;100.00;101702.44;5009826;28;20061;-82
2021/12/14 09:44:51;;;;;;;40.63;22.10;;;7.60;99.90;;;8.43;100.00;101692.63;5022862;28;20141;-83
2021/12/14 09:47:29;;;;;;;40.85;21.50;;;7.70;99.90;;;8.44;100.00;101694.28;5002565;28;20141;-82
2021/12/14 09:49:58;;;;;;;42.05;20.92;;;7.70;99.90;;;8.49;100.00;101702.50;5002157;28;20030;-81
2021/12/14 09:52:37;;;;;;;37.40;21.00;;;7.80;99.90;;;8.61;100.00;101713.84;5001232;28;20030;-82
2021/12/14 09:55:16;;;;;;;38.17;22.05;;;7.80;99.90;;;8.67;100.00;101706.22;5001116;28;20584;-83
2021/12/14 09:57:54;;;;;;;41.85;21.45;;;7.80;99.90;;;8.74;100.00;101712.13;5018353;28;20474;-81
2021/12/14 10:00:32;;;;;;;39.25;20.80;;;7.90;99.90;;;8.68;100.00;101707.84;5000755;28;20033;-85
2021/12/14 10:03:04;;;;;;;35.70;20.70;;;7.90;99.90;;;8.64;100.00;101701.25;5000717;28;20131;-82
2021/12/14 10:05:47;;;;;;;37.13;20.25;;;7.90;99.90;;;8.68;100.00;101702.25;5001062;28;20152;-82
2021/12/14 10:08:34;;;;;;;34.50;18.70;;;7.90;99.90;;;8.73;100.00;101702.94;5001395;28;20424;-81
2021/12/14 10:11:14;;;;;;;;;;;7.90;99.90;;;8.73;100.00;101711.28;5019904;28;20037;-85
2021/12/14 10:13:45;;;;;;;34.17;19.13;;;7.90;99.90;;;8.62;100.00;101709.13;4999981;28;19913;-83
2021/12/14 10:16:12;;;;;;;33.67;19.00;;;7.90;99.90;;;8.67;100.00;101698.66;5018647;28;20060;-83
2021/12/14 10:18:51;;;;;;;37.50;19.02;;;7.90;99.90;;;8.68;100.00;101707.84;5001128;28;20041;-82
2021/12/14 10:21:40;;;;;;;37.00;20.27;;;7.90;99.90;;;8.75;100.00;101705.41;5000226;28;20029;-82
2021/12/14 10:24:08;;;;;;;39.13;19.73;;;8.00;99.90;;;8.80;100.00;101699.69;5002244;28;20395;-83
2021/12/14 10:26:51;;;;;;;40.75;20.27;;;8.00;99.90;;;8.76;100.00;101698.72;4985180;28;20517;-83
2021/12/14 10:29:21;;;;;;;33.78;20.13;;;8.00;99.90;;;8.81;100.00;101698.56;5006871;28;20450;-84
2021/12/14 10:31:59;;;;;;;38.90;21.33;;;8.00;99.90;;;8.80;100.00;101692.16;5005086;28;20086;-82
2021/12/14 10:34:29;;;;;;;41.95;21.85;;;8.00;99.90;;;8.88;100.00;101694.19;4983195;28;20034;-84
2021/12/14 10:38:10;;;;;;;39.85;22.25;;;8.10;99.90;;;8.80;100.00;101692.16;5000288;28;20402;-84
2021/12/14 10:43:25;;;;;;;40.95;22.88;;;8.10;99.90;;;8.83;100.00;101691.53;5000612;28;20566;-82
2021/12/14 10:46:30;;;;;;;43.15;22.42;;;8.10;99.90;;;8.82;100.00;101687.09;5000686;28;20030;-84
2021/12/14 10:48:57;;;;;;;41.67;22.63;;;8.00;99.90;;;8.84;100.00;101690.38;4982157;28;20122;-83
2021/12/14 10:51:38;;;;;;;42.65;23.88;;;8.10;99.90;;;8.87;100.00;101692.53;4980925;28;20034;-84
2021/12/14 10:54:13;;;;;;;44.40;23.38;;;8.10;99.90;;;8.94;100.00;101683.69;4982547;28;20493;-84
2021/12/14 10:56:56;;;;;;;40.33;24.52;;;8.10;99.90;;;8.91;100.00;101685.19;4982103;28;20034;-82
2021/12/14 10:59:34;;;;;;;40.70;23.13;;;8.10;99.90;;;8.95;100.00;101683.41;4982530;28;20185;-84
2021/12/14 11:02:01;;;;;;;43.00;23.95;;;8.20;99.90;;;8.96;100.00;101678.63;4982812;28;20034;-85
2021/12/14 11:04:55;;;;;;;44.17;24.02;;;8.20;99.90;;;9.06;100.00;101671.94;4990791;28;20036;-81
2021/12/14 11:07:41;;;;;;;38.35;22.27;;;8.30;99.90;;;9.14;100.00;101662.78;4985462;28;20030;-84
2021/12/14 11:10:24;;;;;;;45.50;23.58;;;8.40;99.90;;;9.15;100.00;101658.88;4982787;28;20409;-85
2021/12/14 11:13:01;;;;;;;38.92;22.33;;;8.40;99.90;;;9.30;100.00;101656.44;4999933;28;20486;-84
2021/12/14 11:15:44;;;;;;;36.42;20.48;;;8.50;99.90;;;9.43;100.00;101663.84;4982587;28;20470;-83
2021/12/14 11:18:26;;;;;;;34.70;20.05;;;8.70;99.90;;;9.57;100.00;101660.09;4982026;28;20101;-83
2021/12/14 11:21:12;;;;;;;34.88;20.38;;;8.80;99.90;;;9.51;100.00;101664.97;4982073;28;20120;-83